Time;durP1;ratioP1;P1;durP2;ratioP2;P2;SDS_P1;SDS_P2;PMS_P1;PMS_P2;Temp;Humidity;BMP_temperature;BMP_pressure;BME280_temperature;BME280_humidity;BME280_pressure;Samples;Min_cycle;Max_cycle;Signal;HPM_P1;HPM_P2
2023/10/24 00:00:28;;;;;;;2.17;1.98;;;16.40;69.90;18.10;100047.00;;;;4997508;28;20198;-75
2023/10/24 00:02:55;;;;;;;2.33;1.95;;;16.40;69.90;18.10;100051.00;;;;5000130;28;20236;-75
2023/10/24 00:05:22;;;;;;;2.08;1.73;;;16.40;69.90;18.10;100039.00;;;;5006906;28;20197;-74
2023/10/24 00:07:51;;;;;;;2.90;2.25;;;16.50;70.00;18.10;100034.00;;;;4998910;28;20592;-75
2023/10/24 00:10:19;;;;;;;2.40;1.75;;;16.40;69.90;18.10;100031.00;;;;5002695;28;20201;-75
2023/10/24 00:12:46;;;;;;;3.40;2.50;;;16.50;70.00;18.10;100039.00;;;;4994053;28;20286;-74
2023/10/24 00:15:13;;;;;;;2.90;2.35;;;16.50;70.10;18.10;100031.00;;;;4997299;28;20194;-74
2023/10/24 00:17:40;;;;;;;2.85;2.60;;;16.40;70.00;18.10;100030.00;;;;5007199;28;20192;-75
2023/10/24 00:20:09;;;;;;;2.67;2.47;;;16.50;70.10;18.10;100034.00;;;;5006783;28;20204;-74
2023/10/24 00:22:36;;;;;;;2.75;2.40;;;16.50;70.10;18.10;100035.00;;;;5014585;28;20595;-74
2023/10/24 00:25:06;;;;;;;2.97;2.67;;;16.50;70.00;18.10;100032.00;;;;4995729;28;20655;-73
2023/10/24 00:27:34;;;;;;;2.65;2.45;;;16.50;70.10;18.10;100021.00;;;;5017870;28;20221;-74
2023/10/24 00:30:01;;;;;;;4.97;2.97;;;16.50;70.10;18.10;100032.00;;;;5004846;28;20194;-74
2023/10/24 00:32:28;;;;;;;3.70;3.35;;;16.50;70.10;18.10;100022.00;;;;4994161;28;20198;-74
2023/10/24 00:34:55;;;;;;;3.60;2.60;;;16.50;70.20;18.10;100019.00;;;;5005005;28;20227;-74
2023/10/24 00:37:22;;;;;;;4.35;3.17;;;16.50;70.10;18.10;100010.00;;;;4998481;28;20202;-74
2023/10/24 00:39:52;;;;;;;3.55;3.25;;;16.50;70.10;18.10;100017.00;;;;4994526;28;20663;-74
2023/10/24 00:42:20;;;;;;;3.35;3.03;;;16.50;70.20;18.20;100011.00;;;;4994555;28;20194;-74
2023/10/24 00:44:48;;;;;;;4.35;2.97;;;16.50;70.20;18.20;100014.00;;;;5009662;28;20200;-74
2023/10/24 00:47:15;;;;;;;4.03;2.88;;;16.50;70.20;18.20;100022.00;;;;5001766;28;20240;-74
2023/10/24 00:49:43;;;;;;;3.40;3.10;;;16.50;70.20;18.20;100010.00;;;;4999565;28;20201;-74
2023/10/24 00:52:10;;;;;;;3.70;3.40;;;16.50;70.20;18.20;100005.00;;;;5023271;28;20196;-74
2023/10/24 00:54:38;;;;;;;4.43;3.42;;;16.60;70.20;18.20;100006.00;;;;5012314;28;20200;-74
2023/10/24 00:57:08;;;;;;;4.13;3.72;;;16.50;70.10;18.20;100007.00;;;;5000271;28;20578;-73
2023/10/24 00:59:39;;;;;;;4.28;3.88;;;16.60;70.20;18.20;100011.00;;;;4998355;28;20205;-74
2023/10/24 01:02:06;;;;;;;4.65;3.75;;;16.60;70.20;18.20;100013.00;;;;5001548;28;20197;-74
2023/10/24 01:04:35;;;;;;;4.75;4.25;;;16.60;70.20;18.20;100006.00;;;;5001947;28;20216;-74
2023/10/24 01:07:02;;;;;;;6.32;4.38;;;16.60;70.30;18.20;100002.00;;;;5012053;28;20340;-73
2023/10/24 01:09:30;;;;;;;4.45;4.05;;;16.60;70.30;18.20;100007.00;;;;5000991;28;20655;-73
2023/10/24 01:11:59;;;;;;;4.75;4.25;;;16.60;70.20;18.20;100004.00;;;;5026740;28;20211;-74
2023/10/24 01:14:26;;;;;;;4.60;4.18;;;16.60;70.20;18.20;100003.00;;;;5010214;28;20205;-73
2023/10/24 01:16:55;;;;;;;5.70;4.20;;;16.60;71.00;18.20;100005.00;;;;5003205;28;20691;-73
2023/10/24 01:19:22;;;;;;;5.60;4.78;;;16.60;70.20;18.20;100006.00;;;;4993933;28;20651;-74
2023/10/24 01:21:50;;;;;;;4.68;4.25;;;16.60;70.30;18.30;100008.00;;;;5005561;28;20202;-74
2023/10/24 01:24:18;;;;;;;4.57;4.07;;;16.60;70.20;18.20;100004.00;;;;4996273;28;20284;-74
2023/10/24 01:26:46;;;;;;;4.80;4.30;;;16.60;70.20;18.30;100000.00;;;;5011212;28;20217;-74
2023/10/24 01:29:13;;;;;;;6.15;4.28;;;16.60;70.20;18.30;100002.00;;;;5002151;28;20200;-73
2023/10/24 01:31:41;;;;;;;4.65;4.25;;;16.70;70.30;18.30;99999.00;;;;5005987;28;20192;-73
2023/10/24 01:34:08;;;;;;;5.32;4.82;;;16.70;70.40;18.30;100002.00;;;;5017595;28;20197;-73
2023/10/24 01:36:35;;;;;;;5.88;4.28;;;16.60;70.30;18.30;99999.00;;;;5005246;28;20704;-73
2023/10/24 01:39:03;;;;;;;5.20;4.70;;;16.70;70.40;18.30;99987.00;;;;5009133;28;20208;-73
2023/10/24 01:41:31;;;;;;;5.40;4.15;;;16.70;70.40;18.30;99996.00;;;;5001590;28;20690;-73
2023/10/24 01:43:58;;;;;;;4.88;4.28;;;16.70;70.30;18.40;100005.00;;;;5002704;28;20200;-73
2023/10/24 01:46:26;;;;;;;5.35;4.60;;;16.70;70.30;18.40;99999.00;;;;4998850;28;20201;-73
2023/10/24 01:48:53;;;;;;;6.65;4.13;;;16.70;70.30;18.40;99995.00;;;;4997854;28;20224;-73
2023/10/24 01:51:20;;;;;;;5.05;4.55;;;16.70;70.30;18.40;99998.00;;;;5012432;28;20193;-73
2023/10/24 01:53:47;;;;;;;5.80;4.18;;;16.70;70.30;18.40;99995.00;;;;5012683;28;20205;-73
2023/10/24 01:56:16;;;;;;;6.10;4.07;;;16.70;70.20;18.40;99995.00;;;;4996954;28;20292;-73
2023/10/24 01:58:43;;;;;;;4.50;4.10;;;16.70;70.20;18.40;99993.00;;;;5018267;28;20208;-73
2023/10/24 02:01:10;;;;;;;4.70;3.92;;;16.70;70.20;18.40;99996.00;;;;4992308;28;20205;-73
2023/10/24 02:03:37;;;;;;;5.10;4.25;;;16.70;70.20;18.40;99992.00;;;;5002060;28;20221;-73
2023/10/24 02:06:04;;;;;;;7.55;4.07;;;16.70;70.10;18.40;99985.00;;;;4997365;28;20200;-72
2023/10/24 02:08:33;;;;;;;4.25;3.85;;;16.70;70.10;18.40;99989.00;;;;4995358;28;20226;-74
2023/10/24 02:11:00;;;;;;;4.47;3.75;;;16.70;70.10;18.40;99990.00;;;;4998790;28;20198;-73
2023/10/24 02:13:29;;;;;;;4.00;3.60;;;16.70;70.10;18.40;99989.00;;;;5001218;28;20206;-74
2023/10/24 02:15:56;;;;;;;5.15;3.75;;;16.70;70.10;18.40;99981.00;;;;5013159;28;20201;-73
2023/10/24 02:18:23;;;;;;;3.75;3.30;;;16.70;70.10;18.40;99979.00;;;;5006735;28;20200;-73
2023/10/24 02:20:50;;;;;;;3.47;3.10;;;16.70;70.10;18.40;99982.00;;;;5002727;28;20208;-74
2023/10/24 02:23:18;;;;;;;3.78;3.40;;;16.70;70.10;18.40;99981.00;;;;4994604;28;20192;-73
2023/10/24 02:25:45;;;;;;;3.67;3.33;;;16.80;70.10;18.40;99975.00;;;;5001586;28;20224;-73
2023/10/24 02:28:12;;;;;;;3.38;3.08;;;16.70;70.00;18.40;99973.00;;;;5001763;28;20298;-73
2023/10/24 02:30:41;;;;;;;3.88;3.03;;;16.70;70.00;18.40;99965.00;;;;5009968;28;20204;-73
2023/10/24 02:33:07;;;;;;;4.65;3.03;;;16.80;70.10;18.40;99973.00;;;;5000453;28;20189;-73
2023/10/24 02:35:34;;;;;;;6.25;3.33;;;16.70;69.90;18.40;99976.00;;;;4993879;28;20330;-73
2023/10/24 02:38:01;;;;;;;3.85;3.15;;;16.70;69.90;18.40;99969.00;;;;4994711;28;20200;-73
2023/10/24 02:40:28;;;;;;;4.55;3.08;;;16.70;69.90;18.40;99966.00;;;;4990869;28;20582;-74
2023/10/24 02:42:55;;;;;;;3.63;2.53;;;16.70;69.80;18.40;99975.00;;;;5003520;28;20201;-73
2023/10/24 02:45:24;;;;;;;2.88;2.55;;;16.70;69.80;18.40;99975.00;;;;4996128;28;20189;-73
2023/10/24 02:47:53;;;;;;;2.63;2.33;;;16.70;69.80;18.30;99970.00;;;;5006372;28;20215;-73
2023/10/24 02:50:21;;;;;;;3.13;2.60;;;16.70;69.70;18.30;99970.00;;;;5006890;28;20242;-74
2023/10/24 02:52:48;;;;;;;4.35;2.90;;;16.70;69.70;18.30;99975.00;;;;5007765;28;20196;-74
2023/10/24 02:55:15;;;;;;;3.88;2.42;;;16.70;69.70;18.30;99976.00;;;;5003192;28;20205;-74
2023/10/24 02:57:42;;;;;;;4.10;2.95;;;16.70;69.60;18.30;99977.00;;;;5007299;28;20292;-73
2023/10/24 03:00:11;;;;;;;3.70;2.20;;;16.70;69.60;18.30;99987.00;;;;4996058;28;20233;-74
2023/10/24 03:02:38;;;;;;;4.43;2.33;;;16.70;69.60;18.30;99974.00;;;;5002043;28;20300;-74
2023/10/24 03:05:07;;;;;;;3.15;2.70;;;16.60;69.50;18.20;99994.00;;;;5007222;28;20212;-73
2023/10/24 03:07:35;;;;;;;4.57;2.88;;;16.60;69.50;18.20;99988.00;;;;5008960;28;20303;-74
2023/10/24 03:10:02;;;;;;;2.78;2.58;;;16.60;69.50;18.20;99995.00;;;;5001108;28;20204;-74
2023/10/24 03:12:29;;;;;;;2.83;2.45;;;16.60;69.50;18.20;99994.00;;;;5012192;28;20579;-73
2023/10/24 03:14:56;;;;;;;3.25;2.95;;;16.60;69.50;18.20;99986.00;;;;5011974;28;20213;-73
2023/10/24 03:17:23;;;;;;;3.85;2.60;;;16.50;69.50;18.20;99999.00;;;;5010887;28;20204;-74
2023/10/24 03:19:50;;;;;;;3.20;2.95;;;16.50;69.40;18.10;99991.00;;;;5011455;28;20229;-74
2023/10/24 03:22:19;;;;;;;3.08;2.78;;;16.50;69.40;18.10;99994.00;;;;4999738;28;20194;-74
2023/10/24 03:24:46;;;;;;;3.47;2.60;;;16.50;69.50;18.10;100000.00;;;;4996050;28;20204;-74
2023/10/24 03:27:13;;;;;;;4.30;3.17;;;16.50;69.50;18.10;99998.00;;;;4997256;28;20304;-74
2023/10/24 03:29:41;;;;;;;2.60;2.33;;;16.50;69.60;18.10;100004.00;;;;4995150;28;20671;-74
2023/10/24 03:32:08;;;;;;;4.72;2.55;;;16.50;69.50;18.10;99997.00;;;;5018922;28;20684;-74
2023/10/24 03:34:36;;;;;;;5.03;2.70;;;16.40;69.50;18.00;100001.00;;;;5014909;28;20203;-74
2023/10/24 03:37:03;;;;;;;5.55;2.78;;;16.40;69.50;18.00;100000.00;;;;5010695;28;20197;-74
2023/10/24 03:39:32;;;;;;;5.82;2.58;;;16.40;69.50;18.00;99998.00;;;;5002462;28;20203;-74
2023/10/24 03:41:59;;;;;;;3.58;2.40;;;16.40;69.50;18.00;99995.00;;;;5009129;28;20211;-75
2023/10/24 03:44:26;;;;;;;3.38;2.63;;;16.40;69.60;18.00;99998.00;;;;5010143;28;20189;-75
2023/10/24 03:46:53;;;;;;;4.13;3.03;;;16.40;69.60;18.00;100005.00;;;;5006342;28;20201;-75
2023/10/24 03:49:20;;;;;;;4.05;3.35;;;16.30;69.50;17.90;99999.00;;;;5006335;28;20256;-75
2023/10/24 03:51:47;;;;;;;3.38;3.00;;;16.30;70.20;17.90;100002.00;;;;5010213;28;20204;-72
2023/10/24 03:54:14;;;;;;;3.25;2.80;;;16.30;69.40;17.90;99996.00;;;;5008587;28;20212;-75
2023/10/24 03:56:44;;;;;;;5.05;3.03;;;16.30;69.40;17.80;100006.00;;;;5011801;28;20205;-74
2023/10/24 03:59:12;;;;;;;3.55;3.08;;;16.30;69.40;17.80;99994.00;;;;5013827;28;20680;-74
2023/10/24 04:01:40;;;;;;;3.40;3.03;;;16.20;69.30;17.80;100001.00;;;;5001574;28;20726;-74
2023/10/24 04:04:07;;;;;;;3.58;3.20;;;16.20;69.30;17.70;99995.00;;;;5000356;28;20233;-74
2023/10/24 04:06:35;;;;;;;3.55;3.00;;;16.20;69.40;17.70;99999.00;;;;5007796;28;20578;-74
2023/10/24 04:09:04;;;;;;;3.45;3.15;;;16.10;69.40;17.70;100002.00;;;;5001895;28;20239;-73
2023/10/24 04:11:33;;;;;;;3.35;3.05;;;16.10;69.50;17.70;99997.00;;;;5010330;28;20197;-74
2023/10/24 04:14:02;;;;;;;3.88;3.53;;;16.10;69.50;17.70;100006.00;;;;5021408;28;20300;-72
2023/10/24 04:16:30;;;;;;;4.72;3.45;;;16.10;69.60;17.70;100004.00;;;;5008571;28;20198;-75
2023/10/24 04:18:57;;;;;;;4.70;3.67;;;16.10;69.50;17.70;100000.00;;;;5021793;28;20204;-74
2023/10/24 04:21:24;;;;;;;4.47;3.72;;;16.10;69.50;17.70;99999.00;;;;5024455;28;20681;-74
2023/10/24 04:23:52;;;;;;;6.25;3.90;;;16.10;69.50;17.70;100008.00;;;;5009803;28;20201;-73
2023/10/24 04:26:19;;;;;;;4.35;3.70;;;16.00;69.60;17.60;100010.00;;;;4993833;28;20217;-74
2023/10/24 04:28:45;;;;;;;4.00;3.60;;;16.00;69.60;17.60;100008.00;;;;5005419;28;20221;-74
2023/10/24 04:31:13;;;;;;;4.18;3.78;;;16.00;69.70;17.60;99998.00;;;;4994403;28;20225;-74
2023/10/24 04:33:40;;;;;;;4.65;4.15;;;16.00;69.70;17.60;100001.00;;;;5009480;28;20205;-74
2023/10/24 04:36:11;;;;;;;4.32;3.58;;;16.00;69.60;17.50;99986.00;;;;5008436;28;20545;-74
2023/10/24 04:38:38;;;;;;;4.82;4.10;;;15.90;69.50;17.60;99997.00;;;;5009248;28;20197;-75
2023/10/24 04:41:05;;;;;;;5.60;4.10;;;15.90;69.50;17.50;99993.00;;;;5000886;28;20296;-74
2023/10/24 04:43:32;;;;;;;6.03;3.85;;;15.90;69.60;17.50;99983.00;;;;5005924;28;20654;-74
2023/10/24 04:46:00;;;;;;;4.07;3.67;;;15.90;69.60;17.50;99978.00;;;;5013853;28;20185;-73
2023/10/24 04:48:28;;;;;;;4.68;3.92;;;15.90;69.70;17.50;99972.00;;;;5012870;28;20224;-75
2023/10/24 04:50:55;;;;;;;4.78;3.60;;;15.90;69.70;17.50;99974.00;;;;5008728;28;20198;-74
2023/10/24 04:53:22;;;;;;;3.90;3.50;;;15.80;69.70;17.50;99980.00;;;;5004515;28;20200;-75
2023/10/24 04:55:49;;;;;;;5.88;4.03;;;15.90;69.80;17.50;99972.00;;;;4997287;28;20927;-74
2023/10/24 04:58:16;;;;;;;3.90;3.50;;;15.90;69.80;17.40;99978.00;;;;5014996;28;20207;-74
2023/10/24 05:00:43;;;;;;;4.95;3.95;;;15.80;69.80;17.40;99969.00;;;;5020474;28;20583;-74
2023/10/24 05:03:11;;;;;;;5.55;3.47;;;15.80;69.80;17.40;99969.00;;;;5004683;28;20315;-74
2023/10/24 05:05:39;;;;;;;4.07;3.67;;;15.80;69.80;17.40;99966.00;;;;5010763;28;20197;-74
2023/10/24 05:08:09;;;;;;;3.58;3.28;;;15.80;69.80;17.40;99973.00;;;;4995232;28;20201;-74
2023/10/24 05:10:37;;;;;;;4.80;3.78;;;15.80;69.80;17.40;99966.00;;;;4994088;28;20202;-75
2023/10/24 05:13:04;;;;;;;4.35;3.88;;;15.80;69.80;17.40;99967.00;;;;5020173;28;20645;-74
2023/10/24 05:15:31;;;;;;;4.22;3.33;;;15.80;69.80;17.40;99956.00;;;;5002527;28;20208;-74
2023/10/24 05:17:58;;;;;;;3.92;3.10;;;15.80;69.80;17.40;99954.00;;;;4993709;28;20214;-74
2023/10/24 05:20:26;;;;;;;3.83;3.42;;;15.80;69.90;17.40;99950.00;;;;5001372;28;20233;-74
2023/10/24 05:22:54;;;;;;;4.60;4.05;;;15.80;69.90;17.40;99952.00;;;;4997499;28;20575;-75
2023/10/24 05:25:21;;;;;;;5.28;4.30;;;15.80;69.90;17.40;99951.00;;;;5005971;28;20201;-74
2023/10/24 05:27:48;;;;;;;4.72;4.32;;;15.80;69.90;17.40;99951.00;;;;5001057;28;20237;-75
2023/10/24 05:30:15;;;;;;;5.28;4.63;;;15.80;69.90;17.40;99952.00;;;;4997224;28;20225;-74
2023/10/24 05:32:43;;;;;;;5.80;4.18;;;15.80;69.80;17.40;99952.00;;;;5012446;28;20247;-74
2023/10/24 05:35:10;;;;;;;4.28;3.88;;;15.80;69.90;17.40;99955.00;;;;5001445;28;20299;-75
2023/10/24 05:37:37;;;;;;;5.03;4.53;;;15.80;70.00;17.40;99960.00;;;;4995892;28;20198;-72
2023/10/24 05:40:08;;;;;;;6.22;4.30;;;15.80;70.00;17.40;99957.00;;;;5008704;28;20677;-74
2023/10/24 05:42:36;;;;;;;5.68;4.00;;;15.80;70.00;17.50;99961.00;;;;5014246;28;20207;-73
2023/10/24 05:45:04;;;;;;;4.22;3.83;;;15.80;70.00;17.40;99947.00;;;;4995095;28;20560;-74
2023/10/24 05:47:32;;;;;;;5.60;3.95;;;15.80;69.90;17.40;99951.00;;;;5003613;28;20408;-74
2023/10/24 05:49:59;;;;;;;4.50;4.05;;;15.80;69.90;17.40;99955.00;;;;5003127;28;20598;-74
2023/10/24 05:52:26;;;;;;;4.95;3.97;;;15.80;69.90;17.40;99960.00;;;;5004683;28;20200;-74
2023/10/24 05:54:53;;;;;;;5.03;3.78;;;15.80;69.90;17.40;99960.00;;;;4995841;28;20204;-74
2023/10/24 05:57:23;;;;;;;5.25;4.57;;;15.80;69.80;17.40;99960.00;;;;4998264;28;20224;-73
2023/10/24 05:59:50;;;;;;;4.72;4.07;;;15.80;69.80;17.40;99954.00;;;;5004324;28;20300;-74
2023/10/24 06:02:17;;;;;;;5.25;4.18;;;15.80;69.80;17.40;99965.00;;;;5000732;28;20666;-75
2023/10/24 06:04:44;;;;;;;5.28;4.05;;;15.70;69.70;17.40;99963.00;;;;4994534;28;20228;-72
2023/10/24 06:07:11;;;;;;;4.13;3.63;;;15.80;69.80;17.40;99963.00;;;;5004445;28;20731;-72
2023/10/24 06:09:39;;;;;;;4.32;3.65;;;15.80;69.80;17.40;99963.00;;;;5010124;28;20231;-72
2023/10/24 06:12:08;;;;;;;6.55;3.72;;;15.70;69.70;17.40;99963.00;;;;5006257;28;20655;-72
2023/10/24 06:14:36;;;;;;;5.45;3.83;;;15.70;69.70;17.40;99967.00;;;;4994438;28;20217;-72
2023/10/24 06:17:04;;;;;;;3.92;3.33;;;15.70;69.80;17.40;99965.00;;;;5000695;28;20671;-72
2023/10/24 06:19:33;;;;;;;3.60;3.28;;;15.70;69.80;17.40;99965.00;;;;5004933;28;20220;-72
2023/10/24 06:22:00;;;;;;;4.93;4.18;;;15.80;69.80;17.40;99967.00;;;;4999721;28;20717;-73
2023/10/24 06:24:27;;;;;;;4.18;3.78;;;15.70;69.70;17.40;99957.00;;;;5003091;28;20208;-72
2023/10/24 06:26:54;;;;;;;5.13;4.03;;;15.80;69.80;17.40;99966.00;;;;4998563;28;20617;-72
2023/10/24 06:29:21;;;;;;;5.38;3.45;;;15.70;69.70;17.40;99966.00;;;;4991884;28;20237;-72
2023/10/24 06:31:49;;;;;;;4.03;3.63;;;15.70;69.70;17.40;99968.00;;;;4992437;28;20592;-72
2023/10/24 06:34:16;;;;;;;4.78;3.80;;;15.70;69.70;17.40;99964.00;;;;5009178;28;20197;-72
2023/10/24 06:36:43;;;;;;;4.43;3.63;;;15.70;69.70;17.40;99974.00;;;;5008593;28;20211;-73
2023/10/24 06:39:10;;;;;;;3.83;3.47;;;15.70;69.70;17.40;99982.00;;;;5012640;28;20197;-72
2023/10/24 06:41:37;;;;;;;3.55;3.20;;;15.70;69.70;17.40;99975.00;;;;5010272;28;20197;-72
2023/10/24 06:44:05;;;;;;;5.47;3.53;;;15.80;69.60;17.40;99991.00;;;;5006768;28;20200;-74
2023/10/24 06:46:32;;;;;;;4.68;3.60;;;15.70;69.60;17.40;99994.00;;;;5003403;28;20189;-72
2023/10/24 06:49:01;;;;;;;3.90;3.35;;;15.80;69.60;17.40;99996.00;;;;5015065;28;20278;-72
2023/10/24 06:51:28;;;;;;;3.88;3.45;;;15.70;69.60;17.40;100005.00;;;;4999414;28;20228;-72
2023/10/24 06:53:55;;;;;;;4.38;3.92;;;15.70;69.60;17.40;100004.00;;;;5012854;28;20198;-72
2023/10/24 06:56:22;;;;;;;4.07;3.67;;;15.70;69.60;17.40;100019.00;;;;4996735;28;20198;-72
2023/10/24 06:58:49;;;;;;;4.20;3.75;;;15.70;69.60;17.40;100009.00;;;;4997802;28;20228;-72
2023/10/24 07:01:16;;;;;;;5.72;3.60;;;15.70;69.60;17.40;100009.00;;;;4992573;28;20198;-74
2023/10/24 07:03:43;;;;;;;4.15;3.75;;;15.70;69.50;17.40;99994.00;;;;5001834;28;20233;-73
2023/10/24 07:06:12;;;;;;;5.05;3.78;;;15.70;69.50;17.30;99989.00;;;;5001370;28;20193;-73
2023/10/24 07:08:40;;;;;;;3.58;3.28;;;15.70;69.40;17.30;99992.00;;;;5001108;28;20289;-72
2023/10/24 07:11:07;;;;;;;5.03;3.85;;;15.70;69.50;17.30;99996.00;;;;4996376;28;20619;-73
2023/10/24 07:13:36;;;;;;;3.72;3.08;;;15.70;69.40;17.30;99992.00;;;;5000719;28;20217;-72
2023/10/24 07:16:16;;;;;;;4.28;3.88;;;15.70;69.40;17.20;99999.00;;;;5010257;28;20674;-72
2023/10/24 07:18:43;;;;;;;6.55;4.00;;;15.70;69.60;17.30;99987.00;;;;4998418;28;20207;-73
2023/10/24 07:21:12;;;;;;;4.75;4.30;;;15.70;69.50;17.30;99984.00;;;;4997063;28;20217;-72
2023/10/24 07:23:39;;;;;;;4.65;3.88;;;15.70;69.50;17.30;99983.00;;;;4996630;28;20206;-72
2023/10/24 07:26:06;;;;;;;5.07;4.57;;;15.70;69.50;17.30;99989.00;;;;5002818;28;20698;-74
2023/10/24 07:28:33;;;;;;;4.50;3.85;;;15.70;69.60;17.30;99997.00;;;;4995212;28;20651;-72
2023/10/24 07:31:00;;;;;;;4.65;4.15;;;15.70;69.70;17.30;100005.00;;;;4999782;28;20621;-73
2023/10/24 07:33:27;;;;;;;5.00;4.35;;;15.70;69.70;17.30;99999.00;;;;5019584;28;20197;-72
2023/10/24 07:35:54;;;;;;;5.35;4.18;;;15.70;69.70;17.30;100002.00;;;;5001817;28;20229;-72
2023/10/24 07:38:22;;;;;;;4.60;4.20;;;15.70;69.70;17.30;99997.00;;;;5027524;28;20580;-73
2023/10/24 07:40:50;;;;;;;6.35;4.90;;;15.70;69.70;17.30;99980.00;;;;4999456;28;20201;-72
2023/10/24 07:43:17;;;;;;;5.35;4.80;;;15.70;69.80;17.30;99969.00;;;;5005157;28;20292;-73
2023/10/24 07:45:49;;;;;;;5.85;4.85;;;15.70;69.80;17.20;99959.00;;;;5010654;28;20296;-73
2023/10/24 07:48:16;;;;;;;6.65;5.22;;;15.70;70.00;17.30;99976.00;;;;5013150;28;20200;-73
2023/10/24 07:50:50;;;;;;;6.65;4.70;;;15.70;69.80;17.30;99976.00;;;;5003196;28;20234;-73
2023/10/24 07:53:18;;;;;;;6.28;5.43;;;15.70;69.90;17.30;99973.00;;;;4995845;28;20655;-74
2023/10/24 07:55:46;;;;;;;7.00;5.55;;;15.70;69.90;17.30;99973.00;;;;4997351;28;20200;-71
2023/10/24 07:58:14;;;;;;;8.48;5.18;;;15.70;70.00;17.40;99964.00;;;;5008818;28;20203;-73
2023/10/24 08:00:42;;;;;;;6.90;6.03;;;15.70;69.90;17.40;99964.00;;;;4998076;28;20204;-73
2023/10/24 08:03:09;;;;;;;6.15;5.03;;;15.80;70.00;17.40;99968.00;;;;5001744;28;20225;-73
2023/10/24 08:05:36;;;;;;;6.10;5.32;;;15.80;70.00;17.40;99965.00;;;;4994861;28;20202;-73
2023/10/24 08:08:04;;;;;;;5.90;5.30;;;15.80;70.10;17.50;99961.00;;;;5003586;28;20701;-73
2023/10/24 08:10:32;;;;;;;6.72;5.63;;;15.80;70.10;17.50;99960.00;;;;5010519;28;20590;-72
2023/10/24 08:13:01;;;;;;;6.72;5.60;;;15.80;70.10;17.50;99946.00;;;;5004940;28;20284;-73
2023/10/24 08:15:29;;;;;;;6.57;5.57;;;15.80;70.00;17.50;99945.00;;;;5000546;28;22172;-73
2023/10/24 08:17:56;;;;;;;6.30;5.03;;;15.90;70.00;17.50;99940.00;;;;5001861;28;20216;-75
2023/10/24 08:20:23;;;;;;;6.43;4.90;;;15.90;70.00;17.60;99955.00;;;;4993668;28;20197;-72
2023/10/24 08:22:51;;;;;;;6.47;5.78;;;16.00;70.10;17.60;99960.00;;;;4998255;28;20210;-73
2023/10/24 08:25:18;;;;;;;6.32;5.65;;;15.90;70.00;17.60;99951.00;;;;5001726;28;20655;-73
2023/10/24 08:27:45;;;;;;;6.90;5.57;;;16.00;70.00;17.70;99949.00;;;;4999457;28;20316;-72
2023/10/24 08:30:14;;;;;;;6.80;5.72;;;16.00;70.10;17.70;99950.00;;;;5011484;28;20578;-73
2023/10/24 08:32:41;;;;;;;6.97;4.82;;;16.00;70.00;17.70;99947.00;;;;5002531;28;20259;-72
2023/10/24 08:35:09;;;;;;;6.22;5.60;;;16.00;70.00;17.80;99951.00;;;;4994627;28;20256;-73
2023/10/24 08:37:36;;;;;;;15.07;5.22;;;16.10;70.10;17.80;99952.00;;;;4995969;28;20240;-72
2023/10/24 08:40:05;;;;;;;6.35;5.28;;;16.10;70.20;17.90;99958.00;;;;4992888;28;20201;-72
2023/10/24 08:42:33;;;;;;;6.30;5.70;;;16.20;70.30;17.90;99962.00;;;;5004529;28;20229;-73
2023/10/24 08:45:01;;;;;;;6.80;6.15;;;16.20;70.20;17.90;99970.00;;;;5009531;28;20629;-72
2023/10/24 08:47:33;;;;;;;6.85;5.53;;;16.20;70.10;17.90;99968.00;;;;5005484;28;20200;-73
2023/10/24 08:50:02;;;;;;;8.25;5.10;;;16.30;70.00;17.90;99967.00;;;;5005344;28;20721;-72
2023/10/24 08:52:30;;;;;;;6.60;5.65;;;16.30;70.00;18.00;99977.00;;;;5005010;28;20221;-74
2023/10/24 08:55:00;;;;;;;5.97;4.93;;;16.30;69.80;17.90;99980.00;;;;5005794;28;20200;-73
2023/10/24 08:57:30;;;;;;;6.25;5.43;;;16.40;69.70;18.00;99980.00;;;;5012433;28;20614;-73
2023/10/24 08:59:59;;;;;;;5.47;4.95;;;16.40;69.80;18.00;99989.00;;;;5002770;28;20212;-73
2023/10/24 09:02:26;;;;;;;5.70;5.10;;;16.40;69.70;18.00;99992.00;;;;4996264;28;20201;-72
2023/10/24 09:04:56;;;;;;;7.43;5.72;;;16.40;69.60;18.00;99993.00;;;;5004749;28;20203;-74
2023/10/24 09:07:23;;;;;;;7.20;5.10;;;16.40;69.50;18.00;99991.00;;;;4996741;28;20194;-73
2023/10/24 09:09:51;;;;;;;6.18;5.15;;;16.40;69.70;18.10;99991.00;;;;4995563;28;20227;-73
2023/10/24 09:12:18;;;;;;;5.30;4.80;;;16.40;69.80;18.20;99996.00;;;;4993887;28;20210;-72
2023/10/24 09:14:49;;;;;;;5.95;5.07;;;16.50;70.00;18.20;100001.00;;;;5001590;28;20255;-72
2023/10/24 09:17:17;;;;;;;6.53;4.85;;;16.50;70.00;18.30;99992.00;;;;5016151;28;20216;-72
2023/10/24 09:19:45;;;;;;;5.28;4.78;;;16.60;70.20;18.40;99990.00;;;;4995673;28;20209;-72
2023/10/24 09:22:16;;;;;;;6.03;5.35;;;16.70;70.20;18.40;100000.00;;;;5019155;28;20200;-73
2023/10/24 09:24:45;;;;;;;5.30;4.60;;;16.70;70.40;18.50;100004.00;;;;4997835;28;20689;-72
2023/10/24 09:27:28;;;;;;;6.13;4.22;;;16.80;70.30;18.60;99992.00;;;;4970559;28;20275;-73
2023/10/24 09:29:55;;;;;;;5.65;4.88;;;16.90;70.20;18.70;99998.00;;;;5006228;28;20574;-72
2023/10/24 09:32:22;;;;;;;5.90;4.70;;;17.00;69.90;18.70;99985.00;;;;5013599;28;20206;-73
2023/10/24 09:34:50;;;;;;;4.90;4.28;;;17.00;69.80;18.80;99976.00;;;;5000396;28;20296;-72
2023/10/24 09:37:18;;;;;;;4.60;4.15;;;17.10;69.70;18.90;99975.00;;;;5008143;28;20200;-73
2023/10/24 09:39:54;;;;;;;4.93;3.92;;;17.10;69.80;18.90;99974.00;;;;4997687;28;20575;-72
2023/10/24 09:42:25;;;;;;;4.63;4.20;;;17.20;69.80;19.00;99973.00;;;;4997351;28;20207;-72
2023/10/24 09:44:55;;;;;;;4.95;4.45;;;17.30;69.70;19.00;99968.00;;;;5017454;28;20286;-72
2023/10/24 09:47:24;;;;;;;4.72;3.83;;;17.40;69.30;19.10;99970.00;;;;4997959;28;20201;-72
2023/10/24 09:49:53;;;;;;;7.30;4.05;;;17.40;69.20;19.20;99970.00;;;;5009237;28;20252;-72
2023/10/24 09:52:24;;;;;;;5.43;3.97;;;17.40;69.00;19.20;99967.00;;;;4991890;28;20198;-73
2023/10/24 09:54:52;;;;;;;4.53;4.10;;;17.60;69.00;19.20;99972.00;;;;5001476;28;20202;-72
2023/10/24 09:57:22;;;;;;;4.45;3.75;;;17.60;68.80;19.20;99978.00;;;;5000274;28;20200;-72
2023/10/24 09:59:54;;;;;;;4.40;3.53;;;17.60;68.80;19.20;99979.00;;;;5000294;28;20201;-73
2023/10/24 10:02:24;;;;;;;4.72;3.85;;;17.60;68.40;19.20;99977.00;;;;4994361;28;20239;-72
2023/10/24 10:04:52;;;;;;;6.18;3.75;;;17.60;68.30;19.30;99985.00;;;;4998892;28;20228;-73
2023/10/24 10:07:21;;;;;;;4.57;4.07;;;17.70;68.30;19.20;99983.00;;;;5000009;28;20280;-72
2023/10/24 10:09:52;;;;;;;5.07;4.45;;;17.70;68.00;19.20;99974.00;;;;5013139;28;20247;-72
2023/10/24 10:12:19;;;;;;;4.60;3.78;;;17.70;67.80;19.20;99973.00;;;;5003984;28;20245;-72
2023/10/24 10:15:09;;;;;;;6.35;4.25;;;17.60;67.60;19.10;99980.00;;;;5001500;28;20204;-72
2023/10/24 10:17:50;;;;;;;4.63;4.22;;;17.60;67.40;19.10;99968.00;;;;5014598;28;20279;-72
2023/10/24 10:20:43;;;;;;;4.32;3.92;;;17.60;67.40;19.10;99975.00;;;;5001085;28;20208;-73
2023/10/24 10:23:36;;;;;;;5.13;3.75;;;17.60;67.30;19.10;99983.00;;;;4993684;28;20225;-72
2023/10/24 10:26:09;;;;;;;5.30;4.25;;;17.60;67.30;19.10;99976.00;;;;4999321;28;20217;-72
2023/10/24 10:29:06;;;;;;;4.45;3.58;;;17.60;67.40;19.00;99970.00;;;;5001553;28;20206;-72
2023/10/24 10:32:07;;;;;;;4.35;3.42;;;17.60;67.10;19.00;99976.00;;;;4993939;28;20327;-72
2023/10/24 10:34:37;;;;;;;4.15;3.75;;;17.60;67.20;19.20;99966.00;;;;4993811;28;20192;-72
2023/10/24 10:37:05;;;;;;;4.93;3.88;;;17.60;67.50;19.20;99965.00;;;;5005136;28;20196;-72
2023/10/24 10:39:34;;;;;;;4.63;3.88;;;17.60;67.60;19.20;99963.00;;;;5014860;28;20193;-72
2023/10/24 10:42:01;;;;;;;3.92;3.50;;;17.60;67.70;19.20;99959.00;;;;5003974;28;20219;-72
2023/10/24 10:44:44;;;;;;;4.65;3.67;;;17.60;67.60;19.20;99966.00;;;;5000046;28;20676;-72
2023/10/24 10:47:15;;;;;;;5.03;4.05;;;17.60;67.50;19.20;99958.00;;;;5004591;28;20202;-72
2023/10/24 10:49:59;;;;;;;5.03;4.03;;;17.70;67.70;19.20;99962.00;;;;5026330;28;20610;-72
2023/10/24 10:52:49;;;;;;;4.78;3.60;;;17.70;67.50;19.20;99969.00;;;;4997294;28;20197;-72
2023/10/24 10:55:38;;;;;;;5.78;3.58;;;17.70;67.50;19.20;99968.00;;;;4999239;28;20662;-72
2023/10/24 10:58:22;;;;;;;3.72;3.20;;;17.70;67.30;19.20;99972.00;;;;4996312;28;20200;-72